ADDS METAR Data INFO
IDs: Format: Raw Decoded Include TAF

Data at: 2039 UTC 16 Dec 2017

KMGJ 161954Z AUTO 22005KT 10SM OVC035 00/M06 A2995 RMK AO2 SLP147 T00001056
KMGJ 161854Z AUTO 24007KT 10SM FEW038 BKN050 BKN060 M01/M07 A2993 RMK AO2 SLP142 T10061067
KMGJ 161754Z AUTO 23011KT 10SM BKN048 OVC060 M01/M07 A2992 RMK AO2 SLP139 T10111072 11011 21089 58026
KMGJ 161654Z AUTO 22011KT 10SM SCT048 OVC060 M02/M07 A2995 RMK AO2 SLP147 T10171072
KMGJ 161554Z AUTO 23008KT 10SM FEW046 OVC055 M03/M08 A2998 RMK AO2 SLP158 T10281078
KMGJ 161454Z AUTO 23005KT 10SM SCT041 OVC090 M04/M09 A3000 RMK AO2 SLP165 T10391089 51023
KMGJ 161354Z AUTO 22007KT 10SM FEW085 OVC110 M06/M09 A2999 RMK AO2 SLP161 T10611094
KMGJ 161254Z AUTO 22008KT 10SM CLR M07/M11 A2996 RMK AO2 SLP152 T10721106
KMGJ 161154Z AUTO 23007KT 10SM CLR M08/M11 A2993 RMK AO2 SLP142 60000 70002 I6000 T10831111 11083 21144 53013
KMGJ 161054Z AUTO 23005KT 10SM CLR M11/M13 A2991 RMK AO2 SLP135 T11111128
KMGJ 160954Z AUTO 19005KT 8SM FEW060 M10/M12 A2990 RMK AO2 SLP131 T11001117
KMGJ 160854Z AUTO 21006KT 8SM CLR M10/M12 A2990 RMK AO2 SLP130 60000 I1000 I3000 T11001117 51012
KMGJ 160754Z AUTO 22005KT 8SM OVC065 M11/M12 A2989 RMK AO2 SNE11 SLP127 P0000 T11061122
KMGJ 160654Z AUTO 20004KT 7SM -SN FEW080 M12/M13 A2987 RMK AO2 SNB50 SLP121 P0000 I1000 T11221133
KMGJ 160554Z AUTO 20004KT 4SM BR CLR M11/M13 A2986 RMK AO2 SLP118 60001 I1001 I6001 T11111128 11061 21111 57001
KMGJ 160454Z AUTO 21005KT 8SM CLR M10/M11 A2986 RMK AO2 SLP118 I1000 T11001111 410501144
KMGJ 160354Z AUTO 22005KT 10SM BKN080 OVC110 M08/M10 A2986 RMK AO2 SLP117 T10781100
KMGJ 160254Z AUTO 23005KT 10SM SCT095 BKN120 M07/M09 A2986 RMK AO2 SLP117 60001 T10671089 56004
KMGJ 160154Z AUTO 22005KT 10SM FEW033 M08/M09 A2986 RMK AO2 SLP119 T10781094
KMGJ 160054Z AUTO 22003KT 10SM BKN038 OVC100 M07/M08 A2987 RMK AO2 SNE24 SLP120 P0001 T10671083
KMGJ 160029Z AUTO 00000KT 9SM FEW017 OVC100 M07/M08 A2987 RMK AO2 SNE24 P0001 T10671083
KMGJ 160016Z AUTO 00000KT 3SM -SN BR BKN019 OVC100 M07/M08 A2986 RMK AO2 P0001 T10671078
KMGJ 152354Z AUTO 00000KT 1 1/4SM -SN BR OVC021 M06/M08 A2987 RMK AO2 SLP122 P0001 60001 T10611078 11050 21061 56006
KMGJ 152337Z AUTO 00000KT 1 3/4SM -SN BR OVC027 M06/M08 A2987 RMK AO2 P0001 T10611078
KMGJ 152254Z AUTO 18003KT 2SM -SN BR OVC033 M06/M08 A2988 RMK AO2 SLP124 P0000 T10611078
KMGJ 152235Z AUTO 18003KT 2SM -SN BR OVC030 M06/M08 A2988 RMK AO2 P0000 T10611078
KMGJ 152229Z AUTO 18003KT 1 3/4SM -SN BR OVC028 M06/M08 A2988 RMK AO2 P0000 T10611078
KMGJ 152221Z AUTO 21003KT 1 3/4SM -SN BR OVC030 M06/M08 A2989 RMK AO2 P0000 T10611078
KMGJ 152214Z AUTO 00000KT 2SM -SN BR OVC034 M06/M08 A2988 RMK AO2 P0000 T10611083
KMGJ 152154Z AUTO 00000KT 3SM -SN BR OVC040 M06/M08 A2988 RMK AO2 SLP124 P0000 T10611078
KMGJ 152109Z AUTO 00000KT 2SM -SN BR OVC034 M06/M08 A2989 RMK AO2 P0000 T10611083
KMGJ 152102Z AUTO 00000KT 1 3/4SM -SN BR OVC032 M06/M08 A2989 RMK AO2 P0000 T10611083
KMGJ 152054Z AUTO 00000KT 1 1/2SM -SN BR OVC028 M06/M08 A2989 RMK AO2 SLP128 P0000 60000 T10611083 56028
KMGJ 151958Z AUTO 00000KT 1 3/4SM -SN OVC027 M06/M10 A2991 RMK AO2 P0000 T10561100
KMGJ 151954Z AUTO 34003KT 3SM -SN BKN029 OVC041 M06/M10 A2991 RMK AO2 SNB10E25B42 SLP135 P0000 T10561100
KMGJ 151854Z AUTO 00000KT 10SM OVC060 M05/M12 A2994 RMK AO2 SLP144 T10501117
KMGJ 151754Z AUTO 22005KT 10SM OVC090 M06/M12 A2997 RMK AO2 SLP156 T10561117 11056 21144 58034
KMGJ 151654Z AUTO 21005KT 10SM OVC100 M07/M12 A3000 RMK AO2 SLP166 T10671122
KMGJ 151554Z AUTO 20004KT 10SM OVC100 M07/M12 A3005 RMK AO2 SLP182 T10671122
KMGJ 151454Z AUTO 17003KT 10SM OVC110 M08/M13 A3007 RMK AO2 SLP191 T10781128 51007
KMGJ 151354Z AUTO 00000KT 10SM CLR M11/M14 A3007 RMK AO2 SLP190 T11061139
KMGJ 151254Z AUTO 00000KT 10SM CLR M12/M14 A3006 RMK AO2 SLP187 T11171144
KMGJ 151154Z AUTO 00000KT 10SM CLR M14/M16 A3005 RMK AO2 SLP183 70001 T11441161 11106 21144 55003
KMGJ 151054Z AUTO 13004KT 10SM CLR M12/M15 A3005 RMK AO2 SLP181 T11171150
KMGJ 150954Z AUTO 18005KT 10SM CLR M12/M16 A3005 RMK AO2 SLP181 T11171156
KMGJ 150854Z AUTO 24004KT 10SM CLR M11/M16 A3006 RMK AO2 SLP185 T11061156 50002